Historyczne dane pomiarowe

Dodano dane terminowe – wersja testowa.

Dane z okresu 1951-2019

Wersja bazy: 1.34 [2019-03-16, lista zmian], aktualizacja planowana na 2019-04-15

Dane meteo z obszaru Polski uzyskane na podstawie danych udostępnionych przez Instytut Meteorologii i Gospodarki Wodnej – Państwowy Instytut Badawczy.

 

Wybierz Datę:    

       

TemperaturaWilgotnośćWiatrCiśnienieOpadyŚniegCzas trwania zjawisk
 Stacja t tx tn tng RH VA  wxwx mslp ppp RRR   cm mm wxwxwxwxwxwxwx
2012-10-10 5.9 10.0 2.7 0.2-- 6.3----- 0.5------------
2012-10-09 7.5 12.6 3.7 0.8-- 3.7----- 0.0------------
2012-10-08 8.5 11.8 6.2 3.6-- 7.0----- 0.1------------
2012-10-07 10.8 20.4 7.2 4.2-- 8.0----- 10.8------------
2012-10-06 17.5 22.1 12.2 9.7-- 5.3----- 3.1------------
2012-10-05 11.5 15.9 6.8 2.4-- 5.7----- 0.0------------
2012-10-04 13.9 20.5 8.1 5.3-- 8.0----- 7.6------------
2012-10-03 11.9 19.4 4.8 3.2-- 1.7----- 0.0------------
2012-10-02 12.1 15.0 9.9 7.7-- 8.0----- 0.0------------
2012-10-01 9.4 13.6 4.7 3.4-- 8.0----- 0.7------------
2012-09-30 10.5 17.0 6.4 3.6-- 2.0----- 0.0------------
2012-09-29 12.6 19.5 5.8 4.2-- 6.3----- 3.1------------
2012-09-28 13.1 17.4 11.2 8.7-- 4.7----- 0.0------------
2012-09-27 16.2 19.5 13.4 10.8-- 7.7----- 0.2------------
2012-09-26 14.3 23.4 7.2 5.3-- 4.3----- 0.0------------
2012-09-25 15.5 21.0 12.3 10.3-- 4.7----- 0.0------------
2012-09-24 11.8 20.2 2.9 2.3-- 4.0----- 0.0------------
2012-09-23 9.1 15.0 4.7 1.7-- 2.3----- 0.0------------
2012-09-22 10.5 14.2 5.7 3.4-- 5.7----- 0.8------------
2012-09-21 8.3 15.1 1.6 0.4-- 2.7----- 0.0------------
2012-09-20 9.0 14.1 4.7 3.2-- 2.3----- 0.0------------
2012-09-19 12.2 17.3 9.2 8.8-- 8.0----- 7.8------------
2012-09-18 16.0 22.5 9.8 8.2-- 4.0----- 1.0------------
2012-09-17 14.1 20.7 8.2 6.7-- 5.3----- 0.0------------
2012-09-16 14.4 18.5 11.8 10.5-- 6.3----- 0.0------------
2012-09-15 13.0 15.5 10.2 8.1-- 7.3----- 0.0------------
2012-09-14 10.8 17.1 4.6 3.3-- 3.0----- 0.0------------
2012-09-13 9.9 13.0 7.8 7.8-- 7.0----- 2.1------------
2012-09-12 14.4 20.8 9.8 9.8-- 8.0----- 36.7------------
2012-09-11 22.0 28.3 18.2 13.8-- 5.0----- 0.8------------
2012-09-10 17.6 27.0 8.9 7.6-- 1.3----- 0.0------------
2012-09-09 16.4 23.2 11.2 8.8-- 3.7----- 0.0------------
2012-09-08 16.3 20.0 13.8 13.1-- 7.7----- 0.3------------
2012-09-07 13.4 18.5 7.8 5.5-- 7.3----- 0.4------------
2012-09-06 13.6 17.4 11.6 10.6-- 5.0----- 0.0------------
2012-09-05 15.7 23.3 9.8 9.1-- 6.7----- 0.0------------
2012-09-04 17.4 22.2 14.8 14.8-- 5.3----- 0.0------------
2012-09-03 15.9 19.4 11.4 10.7-- 8.0----- 0.0------------
2012-09-02 14.8 17.6 12.7 11.7-- 8.0----- 0.2------------
2012-09-01 14.8 17.2 12.7 12.7-- 8.0----- 1.1------------
2012-08-31 16.8 23.4 13.2 13.1-- 8.0----- 18.8------------
2012-08-30 20.8 28.6 12.8 11.0-- 4.3----- 0.8------------
2012-08-29 19.4 25.8 13.7 12.1-- 5.3----- 0.0------------
2012-08-28 14.7 23.5 6.3 5.1-- 1.3----- 0.0------------
2012-08-27 16.6 21.8 13.4 11.5-- 6.0----- 0.0------------
2012-08-26 18.4 22.5 16.4 16.4-- 7.7----- 0.0------------
2012-08-25 22.0 26.5 18.4 17.4-- 5.0----- 16.2------------
2012-08-24 20.3 28.8 11.6 11.3-- 7.3----- 0.0------------
2012-08-23 19.4 25.2 14.2 12.0-- 3.0----- 0.0------------
2012-08-22 23.1 28.6 17.9 15.7-- 6.3----- 0.3------------
2012-08-21 22.4 27.9 17.8 15.8-- 6.0----- 0.0------------
2012-08-20 26.4 34.2 19.8 15.3-- 1.0----- 0.0------------
2012-08-19 22.2 31.1 12.8 11.0-- 1.0----- 0.0------------
2012-08-18 18.4 26.2 10.8 9.5-- 4.7----- 0.0------------
2012-08-17 18.5 22.4 15.7 15.6-- 6.0----- 0.0------------
2012-08-16 16.9 24.7 8.3 6.7-- 4.7----- 0.0------------
2012-08-15 15.8 22.6 8.8 7.1-- 2.3----- 0.0------------
2012-08-14 14.7 21.1 8.7 6.8-- 4.0----- 0.0------------
2012-08-13 14.3 20.3 8.7 7.1-- 2.3----- 0.0------------
2012-08-12 13.6 18.3 9.8 8.7-- 5.3----- 0.0------------
380.0 ms

 

Źródłem pochodzenia danych jest Instytut Meteorologii i Gospodarki Wodnej – Państwowy Instytut Badawczy. Dane Instytutu Meteorologii i Gospodarki Wodnej – Państwowego Instytutu Badawczego zostały przetworzone.

Dane źródłowe można odnaleźć na stronie https://dane.imgw.pl